KBBB/BBB METAR and TAF weather

Enter ICAO airport designator
Station Type Date Time Source
KBBB METAR 2019/06/26 16:37 UTC NOAA

KBBB 261637Z AUTO 25005KT 10SM CLR 25/14 A3001 RMK AO2


Station Type Date Time Source
KBBB Decoded METAR 2019/06/26 16:37 UTC NOAA

Benson Municipal, MN, United States (KBBB) 45-19N 095-39W
Jun 26, 2019 - 12:37 PM EDT / 2019.06.26 1637 UTC
Wind: from the WSW (250 degrees) at 6 MPH (5 KT):0
Visibility: 10 mile(s):0
Sky conditions: clear
Temperature: 77 F (25 C)
Dew Point: 57 F (14 C)
Relative Humidity: 50%
Pressure (altimeter): 30.01 in. Hg (1016 hPa)
ob: KBBB 261637Z AUTO 25005KT 10SM CLR 25/14 A3001 RMK AO2
cycle: 16

Station Type Date Time Source
KBBB TAF UTC NOAA

Error!

Example: see airport list